Time;durP1;ratioP1;P1;durP2;ratioP2;P2;SDS_P1;SDS_P2;PMS_P1;PMS_P2;Temp;Humidity;BMP_temperature;BMP_pressure;BME280_temperature;BME280_humidity;BME280_pressure;Samples;Min_cycle;Max_cycle;Signal;HPM_P1;HPM_P2
2023/08/27 00:00:53;;;;;;;;;;;;;;;29.52;41.17;93802.63;4967947;28;7858;-61
2023/08/27 00:03:25;;;;;;;;;;;;;;;29.52;41.52;93813.69;5013764;28;9117;-61
2023/08/27 00:05:53;;;;;;;;;;;;;;;29.49;41.94;93817.59;4967638;28;7213;-62
2023/08/27 00:08:25;;;;;;;;;;;;;;;29.49;40.71;93818.31;5023764;28;7010;-62
2023/08/27 00:11:07;;;;;;;;;;;;;;;29.52;41.68;93813.69;4995122;28;6985;-62
2023/08/27 00:14:09;;;;;;;;;;;;;;;29.49;41.93;93807.22;4993108;28;9311;-62
2023/08/27 00:16:45;;;;;;;;;;;;;;;29.50;41.11;93816.28;4942719;28;7509;-62
2023/08/27 00:19:16;;;;;;;;;;;;;;;29.49;41.35;93831.44;4946714;28;7314;-62
2023/08/27 00:22:00;;;;;;;;;;;;;;;29.50;41.31;93816.28;4954341;28;7013;-62
2023/08/27 00:24:47;;;;;;;;;;;;;;;29.51;41.64;93837.16;4935871;28;7387;-62
2023/08/27 00:27:44;;;;;;;;;;;;;;;29.49;41.46;93843.25;4939524;28;7324;-62
2023/08/27 00:30:10;;;;;;;;;;;;;;;29.49;41.02;93820.34;4939593;28;7180;-63
2023/08/27 00:32:45;;;;;;;;;;;;;;;29.48;40.89;93802.25;4936170;28;9045;-63
2023/08/27 00:35:12;;;;;;;;;;;;;;;29.44;41.41;93783.22;4936684;28;7048;-54
2023/08/27 00:37:53;;;;;;;;;;;;;;;29.45;41.78;93789.50;4946871;28;7100;-54
2023/08/27 00:40:32;;;;;;;;;;;;;;;29.44;41.61;93788.00;4940499;28;9087;-54
2023/08/27 00:43:02;;;;;;;;;;;;;;;29.41;41.73;93775.25;4937938;28;9452;-54
2023/08/27 00:45:56;;;;;;;;;;;;;;;29.39;40.80;93769.50;4936526;28;8124;-54
2023/08/27 00:48:32;;;;;;;;;;;;;;;29.35;41.34;93755.28;4937140;28;7252;-54
2023/08/27 00:51:35;;;;;;;;;;;;;;;29.35;41.50;93771.91;4950014;28;7627;-54
2023/08/27 00:54:12;;;;;;;;;;;;;;;29.32;40.81;93781.34;5002330;28;7004;-54
2023/08/27 00:56:58;;;;;;;;;;;;;;;29.30;41.52;93783.91;5025483;28;7487;-54
2023/08/27 01:03:01;;;;;;;;;;;;;;;29.31;41.96;93796.47;5020371;28;9132;-54
2023/08/27 01:05:32;;;;;;;;;;;;;;;29.31;41.05;93802.75;5035950;28;7251;-54
2023/08/27 01:08:13;;;;;;;;;;;;;;;29.29;41.67;93797.03;5009403;28;7474;-54
2023/08/27 01:11:10;;;;;;;;;;;;;;;29.29;42.08;93793.50;5015575;28;9002;-54
2023/08/27 01:13:54;;;;;;;;;;;;;;;29.26;41.76;93803.66;4997613;28;7215;-54
2023/08/27 01:16:25;;;;;;;;;;;;;;;29.27;41.42;93816.22;5003490;28;9142;-54
2023/08/27 01:19:14;;;;;;;;;;;;;;;29.26;41.08;93814.72;5006451;28;7249;-54
2023/08/27 01:21:44;;;;;;;;;;;;;;;29.27;41.91;93815.47;5010597;28;8765;-54
2023/08/27 01:24:17;;;;;;;;;;;;;;;29.25;41.69;93824.34;5009280;28;9107;-54
2023/08/27 01:26:53;;;;;;;;;;;;;;;29.24;41.08;93833.19;5017859;28;9128;-54
2023/08/27 01:33:08;;;;;;;;;;;;;;;29.24;41.65;93858.13;4995970;28;9429;-54
2023/08/27 01:35:37;;;;;;;;;;;;;;;29.24;41.80;93880.28;5011021;28;9083;-54
2023/08/27 01:38:13;;;;;;;;;;;;;;;29.25;41.39;93895.63;4990885;28;9331;-54
2023/08/27 01:40:58;;;;;;;;;;;;;;;29.25;41.20;93879.75;4994854;28;7063;-54
2023/08/27 01:43:24;;;;;;;;;;;;;;;29.25;41.27;93893.59;5001335;28;7239;-54
2023/08/27 01:46:07;;;;;;;;;;;;;;;29.27;41.07;93895.81;4993803;28;6985;-62
2023/08/27 01:48:33;;;;;;;;;;;;;;;29.29;41.35;93913.38;4998373;28;9014;-61
2023/08/27 01:51:01;;;;;;;;;;;;;;;29.25;41.19;93923.31;4998017;28;7254;-62
2023/08/27 01:53:33;;;;;;;;;;;;;;;29.24;41.60;93925.34;4992384;28;9126;-62
2023/08/27 01:56:05;;;;;;;;;;;;;;;29.24;41.37;93922.56;4995294;28;9078;-62
2023/08/27 01:58:36;;;;;;;;;;;;;;;29.20;41.83;93927.72;4991655;28;7056;-62
2023/08/27 02:01:11;;;;;;;;;;;;;;;29.21;41.72;93929.19;4986117;28;9159;-62
2023/08/27 02:03:37;;;;;;;;;;;;;;;29.22;41.52;93949.31;4995651;28;9379;-62
2023/08/27 02:06:09;;;;;;;;;;;;;;;29.21;40.66;93937.50;4984981;28;9532;-62
2023/08/27 02:08:38;;;;;;;;;;;;;;;29.20;40.90;93924.22;5023360;28;7199;-62
2023/08/27 02:11:16;;;;;;;;;;;;;;;29.21;41.08;93918.13;4985278;28;7067;-62
2023/08/27 02:13:51;;;;;;;;;;;;;;;29.19;41.41;93909.59;4976875;28;7183;-61
2023/08/27 02:16:37;;;;;;;;;;;;;;;29.19;41.19;93909.59;4991254;28;9126;-63
2023/08/27 02:19:10;;;;;;;;;;;;;;;29.18;41.88;93910.16;4975058;28;7013;-64
2023/08/27 02:21:36;;;;;;;;;;;;;;;29.18;40.96;93910.91;4987495;28;9051;-63
2023/08/27 02:24:13;;;;;;;;;;;;;;;29.17;41.90;93917.72;4998459;28;7535;-63
2023/08/27 02:26:42;;;;;;;;;;;;;;;29.15;40.90;93923.03;4992046;28;6973;-63
2023/08/27 02:29:08;;;;;;;;;;;;;;;29.18;41.43;93915.72;4994402;28;7234;-64
2023/08/27 02:31:34;;;;;;;;;;;;;;;29.15;41.63;93906.44;5008308;28;9010;-63
2023/08/27 02:34:04;;;;;;;;;;;;;;;29.17;41.24;93911.47;4979298;28;7432;-64
2023/08/27 02:36:53;;;;;;;;;;;;;;;29.18;40.81;93912.94;4996585;28;7251;-63
2023/08/27 02:39:25;;;;;;;;;;;;;;;29.18;40.66;93910.16;4988369;28;6993;-63
2023/08/27 02:41:55;;;;;;;;;;;;;;;29.14;41.41;93895.91;5001071;28;7193;-63
2023/08/27 02:44:23;;;;;;;;;;;;;;;29.18;41.24;93910.16;4992346;28;7323;-63
2023/08/27 02:46:51;;;;;;;;;;;;;;;29.19;40.90;93897.81;4985969;28;8771;-63
2023/08/27 02:49:37;;;;;;;;;;;;;;;29.21;40.59;93895.25;4995708;28;7260;-63
2023/08/27 02:52:13;;;;;;;;;;;;;;;29.24;41.33;93896.91;4994691;28;9126;-62
2023/08/27 02:54:50;;;;;;;;;;;;;;;29.23;40.30;93893.38;4993590;28;7054;-61
2023/08/27 02:57:18;;;;;;;;;;;;;;;29.20;40.77;93883.41;4977962;28;8714;-61
2023/08/27 02:59:50;;;;;;;;;;;;;;;29.22;40.44;93880.09;5002901;28;8935;-61
2023/08/27 03:02:19;;;;;;;;;;;;;;;29.23;40.63;93860.13;4975614;28;7237;-61
2023/08/27 03:04:45;;;;;;;;;;;;;;;29.23;39.92;93851.09;4990354;28;7471;-61
2023/08/27 03:07:18;;;;;;;;;;;;;;;29.23;41.29;93853.88;4974526;28;7286;-61
2023/08/27 03:09:48;;;;;;;;;;;;;;;29.25;40.88;93865.16;4980783;28;9204;-62
2023/08/27 03:12:24;;;;;;;;;;;;;;;29.24;40.89;93861.63;4992426;28;7038;-61
2023/08/27 03:14:50;;;;;;;;;;;;;;;29.26;39.80;93869.38;4999490;28;9469;-61
2023/08/27 03:17:22;;;;;;;;;;;;;;;29.22;40.97;93858.69;4997087;28;6999;-61
2023/08/27 03:20:07;;;;;;;;;;;;;;;29.23;40.53;93862.19;4979086;28;9087;-61
2023/08/27 03:22:48;;;;;;;;;;;;;;;29.24;40.41;93853.31;4988971;28;7396;-61
2023/08/27 03:25:48;;;;;;;;;;;;;;;29.23;40.23;93857.38;4990582;28;7080;-61
2023/08/27 03:28:23;;;;;;;;;;;;;;;29.22;40.92;93841.31;4986865;28;7293;-61
2023/08/27 03:30:51;;;;;;;;;;;;;;;29.24;40.55;93856.09;4992989;28;7259;-61
2023/08/27 03:33:17;;;;;;;;;;;;;;;29.24;39.98;93844.28;5005044;28;8981;-60
2023/08/27 03:35:58;;;;;;;;;;;;;;;29.24;40.65;93835.97;4988963;28;7031;-61
2023/08/27 03:38:27;;;;;;;;;;;;;;;29.24;40.29;93827.66;4986922;28;7305;-61
2023/08/27 03:41:01;;;;;;;;;;;;;;;29.22;40.52;93822.66;5002124;28;8924;-61
2023/08/27 03:43:34;;;;;;;;;;;;;;;29.22;40.46;93828.22;5019100;28;7247;-61
2023/08/27 03:46:10;;;;;;;;;;;;;;;29.20;39.78;93816.94;4997589;28;9176;-61
2023/08/27 03:49:26;;;;;;;;;;;;;;;29.23;40.52;93809.56;4992904;28;7314;-62
2023/08/27 03:51:54;;;;;;;;;;;;;;;29.23;40.50;93798.47;4943364;28;7185;-61
2023/08/27 03:54:23;;;;;;;;;;;;;;;29.23;40.09;93787.41;4951392;28;9000;-61
2023/08/27 03:57:19;;;;;;;;;;;;;;;29.23;39.55;93785.34;4952100;29;9035;-61
2023/08/27 03:59:45;;;;;;;;;;;;;;;29.22;40.50;93785.91;4867850;29;7237;-61
2023/08/27 04:02:30;;;;;;;;;;;;;;;29.23;40.61;93792.94;4852913;29;6993;-61
2023/08/27 04:05:05;;;;;;;;;;;;;;;29.22;39.85;93797.00;4887169;29;7277;-60
2023/08/27 04:07:34;;;;;;;;;;;;;;;29.20;39.53;93780.19;4860141;29;7294;-60
2023/08/27 04:10:04;;;;;;;;;;;;;;;29.21;40.08;93774.09;4870622;29;6922;-60
2023/08/27 04:12:42;;;;;;;;;;;;;;;29.24;40.08;93763.94;4851192;29;9215;-60
2023/08/27 04:15:17;;;;;;;;;;;;;;;29.22;40.46;93747.88;4887995;29;9474;-60
2023/08/27 04:17:43;;;;;;;;;;;;;;;29.21;40.54;93754.69;4890514;29;8864;-60
2023/08/27 04:20:11;;;;;;;;;;;;;;;29.22;39.39;93758.22;4860548;29;7851;-60
2023/08/27 04:22:42;;;;;;;;;;;;;;;29.23;40.14;93751.41;4861553;29;7488;-61
2023/08/27 04:25:16;;;;;;;;;;;;;;;29.22;39.40;93745.13;4890175;29;9330;-60
2023/08/27 04:27:43;;;;;;;;;;;;;;;29.20;39.96;93753.22;4867987;29;7134;-60
2023/08/27 04:30:10;;;;;;;;;;;;;;;29.22;40.29;93744.38;4909746;29;7228;-60
2023/08/27 04:32:36;;;;;;;;;;;;;;;29.21;40.16;93748.44;4909476;29;7373;-60
2023/08/27 04:35:02;;;;;;;;;;;;;;;29.20;39.24;93739.38;4896909;28;7066;-59
2023/08/27 04:37:43;;;;;;;;;;;;;;;29.22;39.48;93730.50;5021756;28;9060;-60
2023/08/27 04:40:21;;;;;;;;;;;;;;;29.17;39.34;93723.84;4983672;28;9496;-60
2023/08/27 04:43:07;;;;;;;;;;;;;;;29.19;39.03;93723.31;4999822;28;8199;-60
2023/08/27 04:45:34;;;;;;;;;;;;;;;29.19;40.17;93718.50;5007615;28;9424;-60
2023/08/27 04:48:02;;;;;;;;;;;;;;;29.18;39.88;93721.84;4996134;28;9164;-61
2023/08/27 04:50:32;;;;;;;;;;;;;;;29.15;39.54;93723.66;4982051;28;8832;-60
2023/08/27 04:53:02;;;;;;;;;;;;;;;29.19;39.72;93734.41;5021393;28;7077;-60
2023/08/27 04:55:31;;;;;;;;;;;;;;;29.17;39.54;93737.00;4993995;28;7025;-59
2023/08/27 04:57:59;;;;;;;;;;;;;;;29.14;39.19;93724.94;4990613;28;6990;-60
2023/08/27 05:00:36;;;;;;;;;;;;;;;29.12;39.18;93724.75;4990217;28;8844;-60
2023/08/27 05:03:06;;;;;;;;;;;;;;;29.15;39.44;93720.13;4992267;28;8753;-60
2023/08/27 05:05:32;;;;;;;;;;;;;;;29.18;38.93;93713.53;4994498;28;7249;-60
2023/08/27 05:08:13;;;;;;;;;;;;;;;29.17;39.64;93717.59;4994282;28;7084;-60
2023/08/27 05:10:41;;;;;;;;;;;;;;;29.18;39.03;93724.59;4984357;28;7329;-60
2023/08/27 05:13:20;;;;;;;;;;;;;;;29.13;40.05;93723.44;4994367;28;8225;-60
2023/08/27 05:15:59;;;;;;;;;;;;;;;29.16;39.03;93727.16;4986757;28;7327;-61
2023/08/27 05:18:45;;;;;;;;;;;;;;;29.18;39.39;93722.59;4988661;28;9053;-62
2023/08/27 05:21:15;;;;;;;;;;;;;;;29.17;39.80;93723.84;4974212;28;7235;-62
2023/08/27 05:23:50;;;;;;;;;;;;;;;29.14;40.27;93726.97;4992109;28;7002;-62
2023/08/27 05:26:17;;;;;;;;;;;;;;;29.12;39.75;93719.22;4988490;28;7120;-62
2023/08/27 05:28:49;;;;;;;;;;;;;;;29.13;40.36;93722.72;4999336;28;7397;-62
2023/08/27 05:31:24;;;;;;;;;;;;;;;29.12;40.93;93726.78;4993160;28;9192;-62
2023/08/27 05:34:01;;;;;;;;;;;;;;;29.06;40.23;93716.59;4989810;28;6989;-62
2023/08/27 05:36:30;;;;;;;;;;;;;;;29.10;40.46;93711.44;4993057;28;9036;-63
2023/08/27 05:39:00;;;;;;;;;;;;;;;29.13;39.78;93697.78;4980429;28;9382;-62
2023/08/27 05:41:45;;;;;;;;;;;;;;;29.12;40.39;93699.09;4997706;28;7013;-63
2023/08/27 05:44:11;;;;;;;;;;;;;;;29.08;39.48;93688.34;5006821;28;8829;-62
2023/08/27 05:46:43;;;;;;;;;;;;;;;29.12;39.96;93707.41;4991637;28;7203;-62
2023/08/27 05:49:10;;;;;;;;;;;;;;;29.08;40.65;93705.72;5009288;28;9070;-62
2023/08/27 05:51:42;;;;;;;;;;;;;;;29.05;40.18;93715.16;4992947;28;9188;-62
2023/08/27 05:54:17;;;;;;;;;;;;;;;29.01;40.04;93723.03;4992192;28;9126;-62
2023/08/27 05:56:54;;;;;;;;;;;;;;;29.01;39.52;93731.34;4979314;28;7278;-62
2023/08/27 05:59:20;;;;;;;;;;;;;;;29.00;40.48;93721.59;4986254;28;7700;-62
2023/08/27 06:01:51;;;;;;;;;;;;;;;28.99;40.10;93720.09;4988046;28;9073;-62
2023/08/27 06:04:18;;;;;;;;;;;;;;;29.00;40.41;93729.88;4983018;28;7085;-62
2023/08/27 06:06:48;;;;;;;;;;;;;;;29.00;39.90;93738.19;4984465;28;7426;-61
2023/08/27 06:09:16;;;;;;;;;;;;;;;29.03;39.77;93726.03;4953666;28;7019;-62
2023/08/27 06:11:42;;;;;;;;;;;;;;;29.05;39.93;93719.94;4990374;28;8519;-62
2023/08/27 06:14:14;;;;;;;;;;;;;;;29.05;39.83;93712.38;4983994;28;9094;-62
2023/08/27 06:16:40;;;;;;;;;;;;;;;29.04;39.78;93708.13;5005675;28;9133;-62
2023/08/27 06:19:06;;;;;;;;;;;;;;;29.04;40.95;93704.59;4985672;28;7273;-62
2023/08/27 06:21:37;;;;;;;;;;;;;;;29.07;39.62;93693.19;4983350;28;9172;-62
2023/08/27 06:24:08;;;;;;;;;;;;;;;29.08;40.73;93677.28;4978771;28;7300;-61
2023/08/27 06:26:37;;;;;;;;;;;;;;;29.07;40.05;93671.03;4984787;28;9306;-61
2023/08/27 06:29:13;;;;;;;;;;;;;;;29.09;40.59;93676.00;4967039;28;9150;-62
2023/08/27 06:31:45;;;;;;;;;;;;;;;29.09;40.65;93687.81;4994772;28;7226;-61
2023/08/27 06:34:23;;;;;;;;;;;;;;;29.08;39.85;93694.63;4991920;28;8801;-61
2023/08/27 06:37:17;;;;;;;;;;;;;;;29.08;39.67;93699.44;5001406;28;7255;-62
2023/08/27 06:39:43;;;;;;;;;;;;;;;29.10;39.87;93705.19;4995417;28;8813;-62
2023/08/27 06:42:21;;;;;;;;;;;;;;;29.05;39.99;93704.06;4991313;28;7173;-62
2023/08/27 06:45:06;;;;;;;;;;;;;;;28.99;39.93;93703.47;5007864;28;7719;-63
2023/08/27 06:48:02;;;;;;;;;;;;;;;29.01;40.05;93709.19;4975996;28;9775;-61
2023/08/27 06:50:41;;;;;;;;;;;;;;;29.03;40.86;93731.56;4911198;29;7315;-62
2023/08/27 06:53:34;;;;;;;;;;;;;;;29.05;39.80;93739.31;4914797;29;7220;-62
2023/08/27 06:56:02;;;;;;;;;;;;;;;29.06;39.57;93735.25;4918283;29;7012;-63
2023/08/27 06:58:34;;;;;;;;;;;;;;;29.09;40.41;93734.16;4929697;29;7074;-62
2023/08/27 07:01:04;;;;;;;;;;;;;;;29.13;39.54;93739.31;4923795;29;7234;-63
2023/08/27 07:03:32;;;;;;;;;;;;;;;29.12;40.19;93743.41;4925150;29;6985;-62
2023/08/27 07:06:05;;;;;;;;;;;;;;;29.13;40.51;93742.09;4930202;29;6895;-62
2023/08/27 07:08:43;;;;;;;;;;;;;;;29.15;40.35;93748.56;4916792;29;6972;-62
2023/08/27 07:11:10;;;;;;;;;;;;;;;29.15;39.74;93748.56;4918007;29;9133;-62
2023/08/27 07:13:41;;;;;;;;;;;;;;;29.15;40.25;93747.81;4920340;29;9069;-62
2023/08/27 07:16:29;;;;;;;;;;;;;;;29.16;39.48;93752.09;4903477;29;7279;-61
2023/08/27 07:19:11;;;;;;;;;;;;;;;29.16;39.94;93735.47;4903910;29;8953;-62
2023/08/27 07:21:45;;;;;;;;;;;;;;;29.14;40.00;93736.03;4912296;29;10134;-62
2023/08/27 07:24:22;;;;;;;;;;;;;;;29.11;40.59;93742.66;4918963;29;7226;-63
2023/08/27 07:26:56;;;;;;;;;;;;;;;29.13;39.54;93750.41;4964817;28;9088;-62
2023/08/27 07:29:28;;;;;;;;;;;;;;;29.12;39.88;93748.94;4986874;28;7072;-62
2023/08/27 07:32:03;;;;;;;;;;;;;;;29.12;39.96;93748.94;4964153;28;6989;-62
2023/08/27 07:34:42;;;;;;;;;;;;;;;29.09;39.91;93756.31;4981973;28;7407;-56
2023/08/27 07:37:23;;;;;;;;;;;;;;;29.10;39.50;93755.03;5000644;28;10189;-56
2023/08/27 07:39:51;;;;;;;;;;;;;;;29.10;40.19;93752.25;4991084;28;7242;-56
2023/08/27 07:42:17;;;;;;;;;;;;;;;29.09;39.81;93757.06;4992443;28;8853;-56
2023/08/27 07:44:44;;;;;;;;;;;;;;;29.07;40.49;93761.66;4986253;28;8568;-55
2023/08/27 07:47:16;;;;;;;;;;;;;;;29.07;40.38;93753.34;5005580;28;7003;-56
2023/08/27 07:49:42;;;;;;;;;;;;;;;29.08;39.54;93757.59;5008513;28;6995;-55
2023/08/27 07:52:16;;;;;;;;;;;;;;;29.08;40.57;93758.34;5000574;28;9408;-56
2023/08/27 07:54:52;;;;;;;;;;;;;;;29.08;39.96;93754.81;4975848;28;8216;-56
2023/08/27 07:57:52;;;;;;;;;;;;;;;29.08;39.61;93758.34;4973322;28;7142;-55
2023/08/27 08:00:20;;;;;;;;;;;;;;;29.05;39.80;93759.44;5009805;28;7188;-56
2023/08/27 08:02:56;;;;;;;;;;;;;;;29.03;40.48;93759.25;5002000;28;7148;-56
2023/08/27 08:05:23;;;;;;;;;;;;;;;29.05;39.91;93762.22;5013589;28;7449;-56
2023/08/27 08:07:49;;;;;;;;;;;;;;;29.03;40.30;93755.75;5004797;28;7239;-56
2023/08/27 08:10:27;;;;;;;;;;;;;;;29.08;40.27;93765.88;5019233;28;7236;-55
2023/08/27 08:13:23;;;;;;;;;;;;;;;29.08;40.67;93761.09;5013053;28;9062;-56
2023/08/27 08:16:38;;;;;;;;;;;;;;;29.10;39.91;93761.28;4970953;28;7634;-55
2023/08/27 08:19:05;;;;;;;;;;;;;;;29.09;40.20;93759.06;4969530;28;9634;-56
2023/08/27 08:21:41;;;;;;;;;;;;;;;29.08;40.61;93757.59;4953543;28;7258;-56
2023/08/27 08:24:37;;;;;;;;;;;;;;;29.08;39.73;93752.78;4960090;28;7217;-55
2023/08/27 08:27:03;;;;;;;;;;;;;;;29.08;41.03;93758.34;4891010;29;7272;-56
2023/08/27 08:29:40;;;;;;;;;;;;;;;29.07;40.91;93765.16;4897650;29;9223;-56
2023/08/27 08:32:43;;;;;;;;;;;;;;;29.04;40.86;93752.41;4898634;29;7249;-55
2023/08/27 08:35:11;;;;;;;;;;;;;;;29.05;40.43;93756.69;4828923;29;9163;-55
2023/08/27 08:38:13;;;;;;;;;;;;;;;29.06;40.99;93754.63;4795074;29;9132;-56
2023/08/27 08:40:59;;;;;;;;;;;;;;;29.05;41.30;93758.69;4809514;29;8178;-56
2023/08/27 08:44:00;;;;;;;;;;;;;;;29.06;40.25;93751.84;4808741;29;7914;-56
2023/08/27 08:46:41;;;;;;;;;;;;;;;29.03;40.48;93748.19;4745483;30;7518;-56
2023/08/27 08:49:59;;;;;;;;;;;;;;;29.03;41.09;93739.13;5075042;27;6705;-54
2023/08/27 08:52:38;;;;;;;;;;;;;;;29.05;41.11;93734.53;5082614;28;7420;-54
2023/08/27 08:55:10;;;;;;;;;;;;;;;29.04;40.33;93735.81;5067196;28;7537;-54
2023/08/27 08:57:52;;;;;;;;;;;;;;;29.05;40.50;93729.00;5072347;28;7529;-54
2023/08/27 09:00:19;;;;;;;;;;;;;;;29.03;40.57;93733.59;5054021;28;7240;-54
2023/08/27 09:03:03;;;;;;;;;;;;;;;29.01;40.80;93734.13;5066848;28;8620;-54
2023/08/27 09:05:57;;;;;;;;;;;;;;;29.05;40.56;93734.53;5068468;28;8831;-54
2023/08/27 09:08:45;;;;;;;;;;;;;;;29.03;40.69;93737.09;5064328;28;7178;-54
2023/08/27 09:11:14;;;;;;;;;;;;;;;29.02;40.58;93738.38;5102381;28;7307;-54
2023/08/27 09:13:45;;;;;;;;;;;;;;;29.04;40.82;93735.81;5085815;28;7416;-54
2023/08/27 09:16:13;;;;;;;;;;;;;;;29.06;41.45;93736.00;5059668;28;9285;-54
2023/08/27 09:18:44;;;;;;;;;;;;;;;29.04;40.63;93737.81;5059529;28;7264;-54
2023/08/27 09:21:10;;;;;;;;;;;;;;;29.04;41.23;93733.03;5065061;28;7383;-54
2023/08/27 09:23:39;;;;;;;;;;;;;;;29.07;40.58;93726.41;5064389;28;7979;-54
2023/08/27 09:26:14;;;;;;;;;;;;;;;29.04;41.06;93741.34;5063532;28;7255;-54
2023/08/27 09:29:17;;;;;;;;;;;;;;;29.04;41.27;93738.56;5062337;28;9187;-54
2023/08/27 09:32:26;;;;;;;;;;;;;;;29.05;40.96;93740.06;5068076;28;7590;-55
2023/08/27 09:35:02;;;;;;;;;;;;;;;29.00;40.80;93743.72;5094457;28;7254;-54
2023/08/27 09:37:43;;;;;;;;;;;;;;;29.03;40.79;93750.19;5062698;28;9530;-54
2023/08/27 09:40:22;;;;;;;;;;;;;;;29.03;41.15;93742.66;5066973;28;7248;-54
2023/08/27 09:43:07;;;;;;;;;;;;;;;29.03;40.97;93756.50;5095070;28;7283;-54
2023/08/27 09:45:35;;;;;;;;;;;;;;;29.03;40.65;93745.41;5061427;28;7388;-54
2023/08/27 09:48:02;;;;;;;;;;;;;;;29.04;41.86;93744.09;5067759;28;7207;-54
2023/08/27 09:51:05;;;;;;;;;;;;;;;29.06;40.89;93741.53;5057353;28;7148;-54
2023/08/27 09:53:32;;;;;;;;;;;;;;;29.04;41.68;93740.59;4974758;28;7260;-54
2023/08/27 09:55:58;;;;;;;;;;;;;;;29.02;41.84;93737.63;4976976;28;7075;-60
2023/08/27 09:58:43;;;;;;;;;;;;;;;29.03;41.98;93742.66;4973364;28;6989;-61
2023/08/27 10:01:19;;;;;;;;;;;;;;;29.04;40.72;93732.28;4964324;28;9186;-60
2023/08/27 10:04:03;;;;;;;;;;;;;;;29.00;40.85;93721.59;4946593;28;8553;-60
2023/08/27 10:06:35;;;;;;;;;;;;;;;29.02;41.37;93724.53;4954812;28;7242;-60
2023/08/27 10:09:03;;;;;;;;;;;;;;;29.00;41.10;93718.81;4970533;28;6907;-60
2023/08/27 10:12:10;;;;;;;;;;;;;;;29.01;41.08;93727.88;4968339;28;7051;-60
2023/08/27 10:14:57;;;;;;;;;;;;;;;29.02;41.63;93741.16;4941403;28;7268;-60
2023/08/27 10:17:43;;;;;;;;;;;;;;;29.01;41.37;93750.72;4950285;28;7321;-60
2023/08/27 10:20:11;;;;;;;;;;;;;;;29.00;41.38;93757.56;4944918;28;7377;-60
2023/08/27 10:22:49;;;;;;;;;;;;;;;28.99;41.13;93764.38;4971170;28;7007;-60
2023/08/27 10:25:26;;;;;;;;;;;;;;;29.01;41.46;93772.88;4971628;28;8971;-60
2023/08/27 10:28:45;;;;;;;;;;;;;;;29.02;41.17;93766.06;4946554;28;7248;-59
2023/08/27 10:31:13;;;;;;;;;;;;;;;29.04;41.33;93751.66;4973133;28;6986;-60
2023/08/27 10:33:49;;;;;;;;;;;;;;;29.02;42.15;93752.22;4973976;28;9095;-60
2023/08/27 10:36:30;;;;;;;;;;;;;;;29.03;41.04;93750.19;4946652;28;7997;-60
2023/08/27 10:39:16;;;;;;;;;;;;;;;29.03;41.85;93759.25;4969868;28;7009;-60
2023/08/27 10:41:42;;;;;;;;;;;;;;;29.04;41.42;93766.25;4972940;28;7237;-60
2023/08/27 10:44:29;;;;;;;;;;;;;;;29.04;41.83;93771.06;4967046;28;8707;-60
2023/08/27 10:47:14;;;;;;;;;;;;;;;29.07;41.19;93778.28;4954246;28;7214;-60
2023/08/27 10:50:10;;;;;;;;;;;;;;;29.08;41.70;93769.41;4944981;28;9148;-60
2023/08/27 10:52:57;;;;;;;;;;;;;;;29.04;41.57;93771.78;4968320;28;6997;-60
2023/08/27 10:55:43;;;;;;;;;;;;;;;29.05;41.46;93772.53;4969547;28;7182;-60
2023/08/27 10:58:15;;;;;;;;;;;;;;;29.06;40.78;93768.47;4964246;28;8992;-60
2023/08/27 11:01:00;;;;;;;;;;;;;;;29.07;41.20;93765.16;4970185;28;7077;-60
2023/08/27 11:03:26;;;;;;;;;;;;;;;29.03;41.32;93759.25;4963244;28;6996;-60
2023/08/27 11:06:12;;;;;;;;;;;;;;;29.06;40.82;93751.84;4976660;28;7354;-64
2023/08/27 11:08:40;;;;;;;;;;;;;;;29.03;41.82;93752.97;5047780;28;7325;-64
2023/08/27 11:11:16;;;;;;;;;;;;;;;29.07;41.14;93748.56;5041128;28;7216;-64
2023/08/27 11:13:44;;;;;;;;;;;;;;;29.06;41.64;93751.84;5050097;28;7257;-64
2023/08/27 11:16:15;;;;;;;;;;;;;;;29.08;41.35;93740.97;5051628;28;9102;-64
2023/08/27 11:18:50;;;;;;;;;;;;;;;29.07;41.48;93745.78;5052934;28;9109;-64
2023/08/27 11:21:27;;;;;;;;;;;;;;;29.07;41.86;93754.09;5047211;28;7357;-64
2023/08/27 11:24:28;;;;;;;;;;;;;;;29.07;41.23;93753.34;5041556;28;7305;-64
2023/08/27 11:27:19;;;;;;;;;;;;;;;29.04;41.25;93744.09;5047964;28;9417;-64
2023/08/27 11:29:57;;;;;;;;;;;;;;;29.09;41.09;93750.78;5045065;28;7257;-64
2023/08/27 11:32:45;;;;;;;;;;;;;;;29.10;41.64;93741.19;5035974;28;7463;-64
2023/08/27 11:35:23;;;;;;;;;;;;;;;29.08;41.14;93740.97;5043420;28;9114;-64
2023/08/27 11:38:04;;;;;;;;;;;;;;;29.04;41.44;93733.03;5062527;28;8731;-64
2023/08/27 11:40:32;;;;;;;;;;;;;;;29.05;41.79;93740.06;5033503;28;7169;-64
2023/08/27 11:43:24;;;;;;;;;;;;;;;29.04;41.59;93733.03;5052061;28;7220;-64
2023/08/27 11:46:27;;;;;;;;;;;;;;;29.05;41.52;93726.22;5048916;28;7178;-64
2023/08/27 11:48:54;;;;;;;;;;;;;;;29.03;41.96;93728.81;4986433;28;7208;-64
2023/08/27 11:51:49;;;;;;;;;;;;;;;29.04;42.18;93727.50;4991766;28;7478;-64
2023/08/27 11:54:17;;;;;;;;;;;;;;;29.05;41.74;93725.47;4972675;28;7198;-64
2023/08/27 11:56:44;;;;;;;;;;;;;;;29.04;41.54;93730.25;4958043;28;7290;-63
2023/08/27 11:59:25;;;;;;;;;;;;;;;29.07;41.65;93731.94;4972776;28;8779;-64
2023/08/27 12:02:15;;;;;;;;;;;;;;;29.08;41.42;93730.63;4965216;28;6989;-64
2023/08/27 12:04:43;;;;;;;;;;;;;;;29.04;41.42;93730.25;4971361;28;7005;-64
2023/08/27 12:07:36;;;;;;;;;;;;;;;29.08;41.44;93727.88;4972158;28;7220;-64
2023/08/27 12:10:41;;;;;;;;;;;;;;;29.07;41.57;93731.94;4970751;28;7160;-64
2023/08/27 12:13:08;;;;;;;;;;;;;;;29.04;41.86;93727.50;4885819;29;9230;-64
2023/08/27 12:15:46;;;;;;;;;;;;;;;29.06;41.31;93733.22;4895662;29;7201;-54
2023/08/27 12:18:12;;;;;;;;;;;;;;;29.03;42.30;93720.50;4895199;29;7220;-54
2023/08/27 12:20:38;;;;;;;;;;;;;;;29.02;41.81;93707.94;4895831;29;9276;-54
2023/08/27 12:23:21;;;;;;;;;;;;;;;29.03;41.35;93717.72;4910152;29;6970;-54
2023/08/27 12:26:17;;;;;;;;;;;;;;;29.02;41.56;93723.78;4933336;29;7153;-54
2023/08/27 12:29:05;;;;;;;;;;;;;;;29.02;42.10;93718.25;4915099;29;9079;-54
2023/08/27 12:31:46;;;;;;;;;;;;;;;29.01;41.70;93711.97;4954265;28;9259;-54
2023/08/27 12:34:47;;;;;;;;;;;;;;;29.01;42.17;93706.44;4955113;28;7444;-54
2023/08/27 12:37:27;;;;;;;;;;;;;;;29.01;41.60;93698.13;4917470;29;8963;-54
2023/08/27 12:40:00;;;;;;;;;;;;;;;29.04;41.99;93693.53;4917408;29;8764;-54
2023/08/27 12:42:37;;;;;;;;;;;;;;;29.00;42.11;93701.44;4925156;29;8770;-54
2023/08/27 12:45:20;;;;;;;;;;;;;;;29.00;42.34;93696.66;4907305;29;7252;-54
2023/08/27 12:47:48;;;;;;;;;;;;;;;29.04;41.18;93693.53;4930653;29;7200;-54
2023/08/27 12:50:27;;;;;;;;;;;;;;;29.02;41.43;93688.53;4982667;28;9038;-54
2023/08/27 12:53:02;;;;;;;;;;;;;;;29.01;41.86;93691.88;4986735;28;7463;-54
2023/08/27 12:55:28;;;;;;;;;;;;;;;29.00;42.25;93699.44;4975155;28;7378;-54
2023/08/27 12:57:56;;;;;;;;;;;;;;;29.00;42.11;93688.34;4985841;28;7252;-54
2023/08/27 13:00:23;;;;;;;;;;;;;;;28.98;41.62;93701.25;4991370;28;7139;-54
2023/08/27 13:02:51;;;;;;;;;;;;;;;28.97;41.47;93706.06;4990995;28;7075;-54
2023/08/27 13:05:48;;;;;;;;;;;;;;;28.99;41.26;93720.09;4969542;28;7148;-54
2023/08/27 13:08:23;;;;;;;;;;;;;;;28.99;41.94;93719.38;4968145;28;8224;-54
2023/08/27 13:11:28;;;;;;;;;;;;;;;29.01;41.99;93719.56;4967874;28;7082;-54
2023/08/27 13:14:25;;;;;;;;;;;;;;;29.04;41.98;93726.75;4971492;28;7241;-54
2023/08/27 13:16:50;;;;;;;;;;;;;;;29.06;42.12;93727.69;4894941;29;7142;-54
2023/08/27 13:19:29;;;;;;;;;;;;;;;29.09;41.47;93736.94;4879770;29;7169;-54
2023/08/27 13:21:56;;;;;;;;;;;;;;;29.06;41.97;93738.00;4895207;29;7266;-54
2023/08/27 13:24:29;;;;;;;;;;;;;;;29.04;42.00;93737.81;4895089;29;6868;-64
2023/08/27 13:27:04;;;;;;;;;;;;;;;29.00;42.00;93732.66;4894021;29;9034;-64
2023/08/27 13:29:40;;;;;;;;;;;;;;;29.01;42.13;93728.59;4875973;29;9101;-64
2023/08/27 13:32:06;;;;;;;;;;;;;;;29.00;41.41;93720.84;4878132;29;9194;-63
2023/08/27 13:34:45;;;;;;;;;;;;;;;29.01;41.79;93727.88;4896845;29;7342;-64
2023/08/27 13:37:21;;;;;;;;;;;;;;;29.02;41.69;93729.34;4898836;29;7428;-64
2023/08/27 13:39:57;;;;;;;;;;;;;;;29.02;41.99;93732.09;4898189;29;7297;-64
2023/08/27 13:42:23;;;;;;;;;;;;;;;28.99;41.77;93733.94;4896415;29;7247;-64
2023/08/27 13:44:52;;;;;;;;;;;;;;;28.99;41.57;93735.97;4916250;29;7258;-64
2023/08/27 13:47:26;;;;;;;;;;;;;;;29.00;41.68;93737.44;4912458;29;8721;-64
2023/08/27 13:49:59;;;;;;;;;;;;;;;29.01;41.77;93736.88;4929962;29;7169;-64
2023/08/27 13:52:32;;;;;;;;;;;;;;;29.01;41.95;93750.00;4946780;28;7070;-64
2023/08/27 13:55:33;;;;;;;;;;;;;;;29.01;42.08;93750.72;5024675;28;7318;-64